Time;durP1;ratioP1;P1;durP2;ratioP2;P2;SDS_P1;SDS_P2;PMS_P1;PMS_P2;Temp;Humidity;BMP_temperature;BMP_pressure;BME280_temperature;BME280_humidity;BME280_pressure;Samples;Min_cycle;Max_cycle;Signal;HPM_P1;HPM_P2
2023/04/04 00:00:17;;;;;;;6.20;2.80;;;1.80;99.90;;;;;;5112032;28;20492;-82
2023/04/04 00:02:45;;;;;;;7.30;3.13;;;1.70;99.90;;;;;;5111347;28;20043;-82
2023/04/04 00:05:11;;;;;;;6.00;3.35;;;1.70;99.90;;;;;;5086320;28;20071;-82
2023/04/04 00:07:38;;;;;;;8.32;3.10;;;2.10;99.90;;;;;;5094885;28;20128;-82
2023/04/04 00:10:05;;;;;;;7.72;2.92;;;2.40;99.90;;;;;;5061592;28;20504;-82
2023/04/04 00:12:32;;;;;;;6.75;3.20;;;1.60;99.90;;;;;;5078207;28;20040;-82
2023/04/04 00:14:59;;;;;;;6.70;2.90;;;1.80;99.90;;;;;;5087664;28;20044;-82
2023/04/04 00:17:25;;;;;;;7.43;2.90;;;2.10;99.90;;;;;;5090934;28;20037;-83
2023/04/04 00:19:52;;;;;;;7.07;2.90;;;1.80;99.90;;;;;;5057550;28;20127;-82
2023/04/04 00:22:19;;;;;;;7.45;3.33;;;1.30;99.90;;;;;;5051473;28;20082;-82
2023/04/04 00:24:45;;;;;;;5.53;2.65;;;1.30;99.90;;;;;;5057883;28;20036;-82
2023/04/04 00:27:12;;;;;;;5.60;3.00;;;1.50;99.90;;;;;;5041119;28;20040;-82
2023/04/04 00:29:39;;;;;;;7.00;3.05;;;1.60;99.90;;;;;;5041109;28;20131;-82
2023/04/04 00:32:05;;;;;;;7.65;3.10;;;1.20;99.90;;;;;;5067976;28;20036;-82
2023/04/04 00:34:32;;;;;;;5.65;2.75;;;1.20;99.90;;;;;;5060214;28;20035;-82
2023/04/04 00:36:59;;;;;;;7.28;2.72;;;1.60;99.90;;;;;;5094072;28;20119;-82
2023/04/04 00:39:26;;;;;;;7.78;2.97;;;1.20;99.90;;;;;;5094129;28;20036;-82
2023/04/04 00:41:52;;;;;;;9.52;3.30;;;1.30;99.90;;;;;;5060720;28;20036;-82
2023/04/04 00:44:19;;;;;;;6.55;3.40;;;1.00;99.90;;;;;;5077212;28;20055;-82
2023/04/04 00:46:46;;;;;;;6.40;3.10;;;1.00;99.90;;;;;;5089565;28;20028;-82
2023/04/04 00:49:13;;;;;;;8.98;3.03;;;1.00;99.90;;;;;;5067152;28;20107;-82
2023/04/04 00:51:39;;;;;;;6.85;2.80;;;1.00;99.90;;;;;;5056969;28;20044;-82
2023/04/04 00:54:06;;;;;;;7.82;3.15;;;0.90;99.90;;;;;;5057309;28;20051;-82
2023/04/04 00:56:36;;;;;;;7.50;3.00;;;0.90;99.90;;;;;;5058765;28;20040;-83
2023/04/04 00:59:04;;;;;;;12.52;3.25;;;1.10;99.90;;;;;;5113850;28;20043;-82
2023/04/04 01:01:31;;;;;;;10.52;2.85;;;0.80;99.90;;;;;;5097121;28;20047;-82
2023/04/04 01:03:58;;;;;;;8.38;3.05;;;0.80;99.90;;;;;;5081052;28;20042;-82
2023/04/04 01:06:26;;;;;;;5.25;2.80;;;0.80;99.90;;;;;;5081218;28;20036;-82
2023/04/04 01:08:54;;;;;;;5.22;2.42;;;1.50;99.90;;;;;;5082942;28;20051;-82
2023/04/04 01:11:20;;;;;;;4.80;2.45;;;1.10;99.90;;;;;;5093623;28;20058;-82
2023/04/04 01:13:47;;;;;;;6.63;2.78;;;0.70;99.90;;;;;;5065329;28;20479;-82
2023/04/04 01:16:14;;;;;;;7.28;2.92;;;1.40;99.90;;;;;;5096880;28;20049;-82
2023/04/04 01:18:42;;;;;;;5.15;2.88;;;0.70;99.90;;;;;;5060397;28;20090;-82
2023/04/04 01:21:15;;;;;;;6.28;2.70;;;0.90;99.90;;;;;;5076247;28;20056;-82
2023/04/04 01:24:03;;;;;;;6.25;2.78;;;1.00;99.90;;;;;;5093111;28;20036;-82
2023/04/04 01:26:30;;;;;;;6.40;2.70;;;0.60;99.90;;;;;;5060971;28;20047;-82
2023/04/04 01:28:58;;;;;;;7.35;2.80;;;0.60;99.90;;;;;;5093003;28;20042;-82
2023/04/04 01:31:38;;;;;;;6.43;3.17;;;0.60;99.90;;;;;;5076868;28;20044;-82
2023/04/04 01:34:17;;;;;;;7.68;2.42;;;0.90;99.90;;;;;;5093455;28;20048;-82
2023/04/04 01:37:00;;;;;;;6.20;2.80;;;0.80;99.90;;;;;;5092345;28;20733;-82
2023/04/04 01:39:31;;;;;;;7.30;2.80;;;1.30;99.90;;;;;;5092000;28;20032;-82
2023/04/04 01:42:01;;;;;;;8.57;3.17;;;0.40;99.90;;;;;;5092531;28;20083;-82
2023/04/04 01:44:28;;;;;;;7.20;3.00;;;0.60;99.90;;;;;;5093070;28;20036;-82
2023/04/04 01:46:55;;;;;;;5.28;2.58;;;0.40;99.90;;;;;;5112283;28;20047;-83
2023/04/04 01:49:22;;;;;;;7.53;2.47;;;0.30;99.90;;;;;;5096427;28;20046;-82
2023/04/04 01:51:53;;;;;;;7.43;2.72;;;0.30;99.90;;;;;;5113193;28;20624;-82
2023/04/04 01:54:21;;;;;;;5.97;2.88;;;0.30;99.90;;;;;;5096693;28;20507;-82
2023/04/04 01:56:48;;;;;;;7.03;2.70;;;0.30;99.90;;;;;;5079776;28;20071;-83
2023/04/04 01:59:15;;;;;;;7.43;2.60;;;0.30;99.90;;;;;;5079585;28;20516;-82
2023/04/04 02:01:42;;;;;;;7.30;2.67;;;0.90;99.90;;;;;;5079167;28;20126;-83
2023/04/04 02:04:11;;;;;;;5.32;2.60;;;0.30;99.90;;;;;;5113139;28;20031;-82
2023/04/04 02:06:39;;;;;;;6.82;2.90;;;0.20;99.90;;;;;;5110309;28;20728;-82
2023/04/04 02:09:06;;;;;;;6.65;2.45;;;0.20;99.90;;;;;;5092335;28;20042;-82
2023/04/04 02:11:32;;;;;;;9.15;2.72;;;0.50;99.90;;;;;;5087335;28;20036;-82
2023/04/04 02:13:59;;;;;;;5.43;2.22;;;0.20;99.90;;;;;;5055985;28;20041;-82
2023/04/04 02:16:26;;;;;;;5.88;2.70;;;0.10;99.90;;;;;;5088906;28;20048;-82
2023/04/04 02:18:52;;;;;;;6.40;3.05;;;0.20;99.90;;;;;;5080899;28;20123;-82
2023/04/04 02:21:24;;;;;;;7.18;2.70;;;0.10;99.90;;;;;;5050804;28;20078;-82
2023/04/04 02:23:51;;;;;;;6.43;2.42;;;0.90;99.90;;;;;;5072272;28;20131;-82
2023/04/04 02:26:17;;;;;;;10.75;3.08;;;0.30;99.90;;;;;;5039353;28;20036;-82
2023/04/04 02:28:44;;;;;;;5.88;2.60;;;0.40;99.90;;;;;;5055771;28;20151;-83
2023/04/04 02:31:11;;;;;;;7.78;2.90;;;0.10;99.90;;;;;;5070059;28;20102;-82
2023/04/04 02:33:37;;;;;;;5.88;2.30;;;0.00;99.90;;;;;;5055635;28;20090;-82
2023/04/04 02:36:04;;;;;;;5.88;2.55;;;0.00;99.90;;;;;;5071520;28;20098;-82
2023/04/04 02:38:32;;;;;;;5.55;2.55;;;0.00;99.90;;;;;;5065160;28;20550;-82
2023/04/04 02:40:58;;;;;;;6.65;2.65;;;0.00;99.90;;;;;;5079605;28;20046;-82
2023/04/04 02:43:25;;;;;;;6.30;2.80;;;0.00;99.90;;;;;;5086203;28;20036;-82
2023/04/04 02:45:52;;;;;;;6.75;2.63;;;-0.10;99.90;;;;;;5091985;28;20040;-82
2023/04/04 02:48:18;;;;;;;5.32;2.42;;;0.60;99.90;;;;;;5059276;28;20442;-82
2023/04/04 02:50:46;;;;;;;7.22;2.53;;;0.00;99.90;;;;;;5060509;28;20043;-82
2023/04/04 02:53:13;;;;;;;6.00;2.25;;;0.00;99.90;;;;;;5079702;28;20131;-82
2023/04/04 02:55:40;;;;;;;7.53;2.65;;;0.70;99.90;;;;;;5079659;28;20135;-82
2023/04/04 02:58:07;;;;;;;6.53;2.58;;;0.00;99.90;;;;;;5063423;28;20032;-82
2023/04/04 03:00:34;;;;;;;5.72;2.55;;;-0.10;99.90;;;;;;5079825;28;20043;-82
2023/04/04 03:03:00;;;;;;;6.10;3.00;;;-0.10;99.90;;;;;;5096081;28;20032;-82
2023/04/04 03:05:29;;;;;;;7.90;2.50;;;-0.10;99.90;;;;;;5075581;28;20063;-82
2023/04/04 03:07:57;;;;;;;5.78;2.50;;;0.80;99.90;;;;;;5075272;28;20045;-82
2023/04/04 03:10:25;;;;;;;5.50;2.45;;;0.00;99.90;;;;;;5095627;28;20048;-82
2023/04/04 03:12:52;;;;;;;5.65;2.67;;;0.40;99.90;;;;;;5078810;28;20036;-83
2023/04/04 03:15:19;;;;;;;6.22;2.90;;;0.60;99.90;;;;;;5095979;28;20122;-82
2023/04/04 03:17:46;;;;;;;7.40;2.70;;;-0.20;99.90;;;;;;5095798;28;20051;-82
2023/04/04 03:20:13;;;;;;;7.95;2.80;;;-0.30;99.90;;;;;;5062728;28;20064;-82
2023/04/04 03:22:41;;;;;;;11.68;2.95;;;-0.30;99.90;;;;;;5112630;28;20130;-82
2023/04/04 03:25:08;;;;;;;7.43;2.58;;;0.10;99.90;;;;;;5095462;28;20047;-82
2023/04/04 03:27:35;;;;;;;6.00;2.22;;;-0.40;99.90;;;;;;5079078;28;20066;-82
2023/04/04 03:30:02;;;;;;;10.40;2.97;;;0.60;99.90;;;;;;5062304;28;20036;-82
2023/04/04 03:32:29;;;;;;;7.15;2.45;;;-0.40;99.90;;;;;;5059099;28;20037;-82
2023/04/04 03:34:56;;;;;;;6.05;2.72;;;-0.40;99.90;;;;;;5042110;28;20130;-82
2023/04/04 03:37:23;;;;;;;7.63;2.85;;;-0.50;99.90;;;;;;5071361;28;20064;-82
2023/04/04 03:39:49;;;;;;;5.50;2.50;;;-0.20;99.90;;;;;;5059390;28;20044;-83
2023/04/04 03:42:16;;;;;;;5.93;2.40;;;0.60;99.90;;;;;;5078396;28;20434;-82
2023/04/04 03:44:43;;;;;;;5.15;2.50;;;-0.50;99.90;;;;;;5095253;28;20036;-82
2023/04/04 03:47:09;;;;;;;6.10;2.67;;;-0.50;99.90;;;;;;5062170;28;20040;-83
2023/04/04 03:49:36;;;;;;;7.45;2.60;;;-0.50;99.90;;;;;;5078775;28;20044;-83
2023/04/04 03:52:03;;;;;;;5.22;2.40;;;-0.50;99.90;;;;;;5095104;28;20050;-82
2023/04/04 03:54:30;;;;;;;7.20;2.67;;;-0.60;99.90;;;;;;5063805;28;20048;-82
2023/04/04 03:56:57;;;;;;;7.35;2.40;;;-0.20;99.90;;;;;;5095158;28;20040;-83
2023/04/04 03:59:24;;;;;;;6.07;2.50;;;-0.30;99.90;;;;;;5078805;28;20860;-82
2023/04/04 04:01:51;;;;;;;6.13;2.60;;;0.10;99.90;;;;;;5094399;28;20373;-82
2023/04/04 04:04:18;;;;;;;10.38;2.80;;;-0.60;99.90;;;;;;5061563;28;20036;-82
2023/04/04 04:06:44;;;;;;;6.45;2.45;;;-0.60;99.90;;;;;;5061950;28;20044;-82
2023/04/04 04:09:11;;;;;;;6.95;2.70;;;-0.60;99.90;;;;;;5061763;28;20476;-82
2023/04/04 04:11:38;;;;;;;5.25;2.38;;;-0.20;99.90;;;;;;5078471;28;20051;-83
2023/04/04 04:14:04;;;;;;;6.65;2.60;;;-0.70;99.90;;;;;;5078066;28;20044;-83
2023/04/04 04:16:31;;;;;;;6.72;2.22;;;-0.70;99.90;;;;;;5075739;28;20149;-83
2023/04/04 04:18:58;;;;;;;5.65;2.35;;;-0.70;99.90;;;;;;5077087;28;20507;-82
2023/04/04 04:21:25;;;;;;;6.03;2.55;;;-0.70;99.90;;;;;;5080489;28;20105;-82
2023/04/04 04:23:51;;;;;;;9.40;3.00;;;-0.70;99.90;;;;;;5097637;28;20050;-82
2023/04/04 04:26:18;;;;;;;9.85;3.00;;;-0.80;99.90;;;;;;5080020;28;20502;-82
2023/04/04 04:28:47;;;;;;;5.88;2.60;;;-0.20;99.90;;;;;;5098081;28;20062;-82
2023/04/04 04:31:13;;;;;;;9.27;2.83;;;-0.80;99.90;;;;;;5076316;28;20443;-82
2023/04/04 04:33:40;;;;;;;6.45;2.80;;;-0.90;99.90;;;;;;5057609;28;20052;-82
2023/04/04 04:36:07;;;;;;;5.72;3.03;;;-0.80;99.90;;;;;;5041121;28;20476;-83
2023/04/04 04:38:34;;;;;;;6.43;2.72;;;-0.90;99.90;;;;;;5090933;28;20064;-82
2023/04/04 04:41:01;;;;;;;7.05;3.25;;;-0.90;99.90;;;;;;5057129;28;20110;-82
2023/04/04 04:43:27;;;;;;;7.53;2.92;;;-0.40;99.90;;;;;;5041078;28;20036;-82
2023/04/04 04:45:54;;;;;;;6.72;3.28;;;-0.90;99.90;;;;;;5040867;28;20044;-82
2023/04/04 04:48:21;;;;;;;6.10;2.95;;;-0.90;99.90;;;;;;5078296;28;20077;-82
2023/04/04 04:50:48;;;;;;;6.00;3.00;;;-0.50;99.90;;;;;;5113892;28;20118;-82
2023/04/04 04:53:15;;;;;;;7.45;2.70;;;-0.90;99.90;;;;;;5096645;28;20164;-82
2023/04/04 04:55:42;;;;;;;5.53;2.97;;;-0.10;99.90;;;;;;5097134;28;20487;-82
2023/04/04 04:58:09;;;;;;;4.63;2.53;;;-0.90;99.90;;;;;;5081198;28;20044;-82
2023/04/04 05:00:37;;;;;;;6.35;2.67;;;-1.00;99.90;;;;;;5101413;28;20039;-82
2023/04/04 05:03:07;;;;;;;5.38;2.75;;;-1.00;99.90;;;;;;5092987;28;20393;-83
2023/04/04 05:05:34;;;;;;;8.00;3.10;;;-0.30;99.90;;;;;;5076973;28;20476;-82
2023/04/04 05:08:04;;;;;;;7.60;3.22;;;-0.90;99.90;;;;;;5110647;28;20062;-82
2023/04/04 05:10:31;;;;;;;8.52;3.20;;;-1.00;99.90;;;;;;5110096;28;20408;-82
2023/04/04 05:12:57;;;;;;;5.88;2.85;;;-1.00;99.90;;;;;;5076778;28;20047;-82
2023/04/04 05:15:31;;;;;;;5.78;2.65;;;-0.90;99.90;;;;;;5093295;28;20048;-82
2023/04/04 05:17:58;;;;;;;7.22;3.30;;;-0.30;99.90;;;;;;5080227;28;20084;-82
2023/04/04 05:20:24;;;;;;;10.52;3.10;;;-0.90;99.90;;;;;;5130245;28;20077;-82
2023/04/04 05:22:51;;;;;;;6.28;3.15;;;-0.80;99.90;;;;;;5096936;28;20127;-82
2023/04/04 05:25:18;;;;;;;6.53;3.08;;;0.10;99.90;;;;;;5096452;28;20040;-82
2023/04/04 05:27:48;;;;;;;6.20;3.03;;;-0.60;99.90;;;;;;5096755;28;20036;-82
2023/04/04 05:30:15;;;;;;;6.57;3.30;;;-0.60;99.90;;;;;;5095636;28;20857;-82
2023/04/04 05:32:44;;;;;;;6.53;2.92;;;-0.80;99.90;;;;;;5076986;28;20074;-82
2023/04/04 05:35:12;;;;;;;6.53;2.65;;;-0.80;99.90;;;;;;5076691;28;20032;-81
2023/04/04 05:37:39;;;;;;;5.82;2.70;;;-0.80;99.90;;;;;;5094097;28;20043;-82
2023/04/04 05:40:07;;;;;;;7.80;3.40;;;-0.50;99.90;;;;;;5061718;28;20061;-82
2023/04/04 05:42:34;;;;;;;6.32;2.90;;;-0.70;99.90;;;;;;5093099;28;20043;-82
2023/04/04 05:45:00;;;;;;;12.65;3.10;;;-0.30;99.90;;;;;;5059824;28;20035;-82
2023/04/04 05:47:27;;;;;;;8.98;2.80;;;-0.10;99.90;;;;;;5059821;28;20047;-82
2023/04/04 05:49:54;;;;;;;10.25;2.88;;;-0.60;99.90;;;;;;5076402;28;20102;-82
2023/04/04 05:52:20;;;;;;;9.95;3.30;;;-0.60;99.90;;;;;;5060072;28;20036;-82
2023/04/04 05:54:47;;;;;;;6.55;3.00;;;-0.50;99.90;;;;;;5060056;28;20032;-82
2023/04/04 05:57:14;;;;;;;7.57;3.10;;;-0.50;99.90;;;;;;5076488;28;20036;-82
2023/04/04 05:59:40;;;;;;;6.65;3.17;;;-0.50;99.90;;;;;;5092209;28;20078;-82
2023/04/04 06:02:07;;;;;;;6.90;3.17;;;-0.20;99.90;;;;;;5076402;28;20039;-82
2023/04/04 06:04:34;;;;;;;6.50;3.00;;;-0.30;99.90;;;;;;5059331;28;20047;-82
2023/04/04 06:07:01;;;;;;;7.68;2.42;;;-0.30;99.90;;;;;;5059661;28;20039;-82
2023/04/04 06:09:28;;;;;;;7.68;3.05;;;-0.20;99.90;;;;;;5092712;28;20082;-82
2023/04/04 06:11:55;;;;;;;9.73;3.10;;;-0.20;99.90;;;;;;5092512;28;20130;-82
2023/04/04 06:14:21;;;;;;;6.57;2.63;;;-0.20;99.90;;;;;;5075442;28;20055;-83
2023/04/04 06:16:48;;;;;;;6.90;2.97;;;0.70;99.90;;;;;;5059208;28;20036;-83
2023/04/04 06:19:15;;;;;;;10.48;2.97;;;-0.10;99.90;;;;;;5059306;28;20130;-83
2023/04/04 06:21:42;;;;;;;9.70;3.13;;;-0.10;99.90;;;;;;5075102;28;20129;-83
2023/04/04 06:24:09;;;;;;;6.47;2.97;;;0.00;99.90;;;;;;5075660;28;20423;-83
2023/04/04 06:26:36;;;;;;;7.13;3.28;;;-0.10;99.90;;;;;;5075056;28;20496;-83
2023/04/04 06:29:03;;;;;;;6.65;2.90;;;0.60;99.90;;;;;;5076016;28;20047;-83
2023/04/04 06:31:30;;;;;;;9.60;4.07;;;0.00;99.90;;;;;;5108619;28;20044;-83
2023/04/04 06:33:57;;;;;;;7.65;3.78;;;0.00;99.90;;;;;;5059840;28;20036;-83
2023/04/04 06:36:24;;;;;;;8.73;3.53;;;0.10;99.90;;;;;;5060829;28;20051;-83
2023/04/04 06:38:51;;;;;;;7.90;2.85;;;0.10;99.90;;;;;;5076074;28;20047;-83
2023/04/04 06:41:17;;;;;;;7.40;3.05;;;0.20;99.90;;;;;;5092688;28;20039;-83
2023/04/04 06:43:47;;;;;;;9.85;3.20;;;0.20;99.90;;;;;;5078771;28;20039;-83
2023/04/04 06:46:14;;;;;;;12.23;2.92;;;0.50;99.90;;;;;;5096069;28;20571;-83
2023/04/04 06:48:41;;;;;;;6.93;3.03;;;1.50;99.90;;;;;;5095484;28;20130;-83
2023/04/04 06:51:08;;;;;;;7.20;2.72;;;0.40;99.90;;;;;;5063139;28;20462;-83
2023/04/04 06:53:35;;;;;;;7.55;2.60;;;0.60;99.90;;;;;;5071785;28;20127;-83
2023/04/04 06:56:02;;;;;;;5.53;2.00;;;0.60;99.90;;;;;;5056109;28;20135;-84
2023/04/04 06:58:29;;;;;;;7.85;2.85;;;0.70;99.90;;;;;;5055126;28;20121;-83
2023/04/04 07:00:58;;;;;;;5.75;2.30;;;0.90;99.90;;;;;;5079868;28;20396;-83
2023/04/04 07:03:26;;;;;;;6.20;2.47;;;0.90;99.90;;;;;;5075755;28;20076;-83
2023/04/04 07:05:52;;;;;;;9.10;2.35;;;1.00;99.90;;;;;;5060244;28;20028;-83
2023/04/04 07:08:19;;;;;;;7.18;2.60;;;1.10;99.90;;;;;;5056261;28;20404;-82
2023/04/04 07:10:46;;;;;;;6.70;2.95;;;1.30;99.90;;;;;;5093094;28;20040;-83
2023/04/04 07:13:13;;;;;;;6.93;2.40;;;1.30;99.90;;;;;;5124369;28;20073;-82
2023/04/04 07:15:47;;;;;;;7.03;2.45;;;2.40;99.90;;;;;;5091771;28;20048;-82
2023/04/04 07:18:14;;;;;;;4.53;2.08;;;1.60;99.90;;;;;;5085192;28;20047;-82
2023/04/04 07:20:42;;;;;;;7.00;2.60;;;2.70;99.90;;;;;;5075084;28;20480;-82
2023/04/04 07:23:10;;;;;;;5.65;2.47;;;2.20;99.90;;;;;;5109097;28;20040;-82
2023/04/04 07:25:37;;;;;;;7.88;2.45;;;2.00;99.90;;;;;;5108228;28;20039;-82
2023/04/04 07:28:04;;;;;;;6.53;2.55;;;2.00;99.90;;;;;;5108939;28;20562;-83
2023/04/04 07:30:32;;;;;;;7.60;2.72;;;2.20;99.90;;;;;;5091372;28;20040;-82
2023/04/04 07:32:59;;;;;;;8.95;2.50;;;2.50;99.90;;;;;;5092270;28;20094;-83
2023/04/04 07:35:26;;;;;;;7.43;2.38;;;2.40;99.90;;;;;;5091925;28;20123;-83
2023/04/04 07:37:52;;;;;;;6.88;2.15;;;2.60;99.90;;;;;;5109303;28;20123;-83
2023/04/04 07:40:19;;;;;;;6.25;1.98;;;3.70;99.90;;;;;;5090112;28;20520;-82
2023/04/04 07:42:53;;;;;;;4.55;2.00;;;2.80;99.90;;;;;;5095855;28;20110;-83
2023/04/04 07:45:21;;;;;;;8.57;2.30;;;2.90;99.90;;;;;;5094710;28;20044;-82
2023/04/04 07:47:47;;;;;;;7.32;2.38;;;3.00;99.90;;;;;;5125210;28;20468;-82
2023/04/04 07:50:15;;;;;;;6.07;2.10;;;3.60;99.90;;;;;;5094535;28;20078;-82
2023/04/04 07:52:48;;;;;;;8.60;2.00;;;3.30;99.90;;;;;;5094558;28;20039;-83
2023/04/04 07:55:15;;;;;;;7.32;2.25;;;3.40;99.90;;;;;;5094809;28;20551;-83
2023/04/04 07:57:43;;;;;;;7.15;2.08;;;3.50;99.90;;;;;;5077416;28;20106;-83
2023/04/04 08:00:10;;;;;;;5.18;1.83;;;3.60;99.90;;;;;;5092380;28;20039;-82
2023/04/04 08:02:38;;;;;;;5.40;2.05;;;3.80;99.90;;;;;;5087860;28;20512;-83
2023/04/04 08:05:05;;;;;;;6.68;1.77;;;3.80;99.90;;;;;;5077703;28;20040;-83
2023/04/04 08:07:32;;;;;;;9.55;2.05;;;3.90;99.90;;;;;;5098464;28;20073;-82
2023/04/04 08:09:59;;;;;;;7.40;1.70;;;4.10;99.90;;;;;;5081691;28;20474;-83
2023/04/04 08:12:25;;;;;;;4.43;1.50;;;4.10;99.90;;;;;;5096881;28;20122;-83
2023/04/04 08:14:52;;;;;;;5.22;1.67;;;4.60;99.90;;;;;;5061219;28;20051;-83
2023/04/04 08:17:19;;;;;;;4.88;1.40;;;4.30;99.90;;;;;;5110899;28;20051;-83
2023/04/04 08:19:46;;;;;;;6.05;1.40;;;4.40;99.90;;;;;;5060471;28;20048;-83
2023/04/04 08:22:13;;;;;;;6.20;2.20;;;4.90;99.90;;;;;;5093695;28;20440;-83
2023/04/04 08:24:40;;;;;;;6.47;2.10;;;4.60;99.90;;;;;;5059726;28;20048;-84
2023/04/04 08:27:06;;;;;;;8.35;2.00;;;4.70;99.90;;;;;;5076754;28;20113;-82
2023/04/04 08:29:33;;;;;;;4.97;1.60;;;4.90;99.90;;;;;;5061026;28;20063;-83
2023/04/04 08:32:00;;;;;;;6.47;2.10;;;4.90;99.90;;;;;;5077021;28;20090;-84
2023/04/04 08:34:27;;;;;;;5.28;2.22;;;5.10;99.90;;;;;;5060519;28;20043;-83
2023/04/04 08:36:54;;;;;;;7.00;1.70;;;5.20;99.90;;;;;;5076622;28;20039;-84
2023/04/04 08:39:21;;;;;;;3.83;1.63;;;5.30;99.90;;;;;;5077391;28;20515;-84
2023/04/04 08:42:00;;;;;;;4.07;1.70;;;5.40;99.90;;;;;;5060181;28;20032;-84
2023/04/04 08:44:28;;;;;;;5.22;2.03;;;5.50;99.90;;;;;;5093958;28;20059;-84
2023/04/04 08:46:57;;;;;;;7.03;2.05;;;5.60;99.90;;;;;;5077158;28;20036;-84
2023/04/04 08:49:28;;;;;;;6.55;2.10;;;5.70;99.90;;;;;;5101431;28;20457;-83
2023/04/04 08:51:56;;;;;;;5.38;2.00;;;5.80;99.90;;;;;;5093282;28;20044;-83
2023/04/04 08:54:25;;;;;;;5.80;2.03;;;5.90;99.90;;;;;;5093911;28;20044;-83
2023/04/04 08:56:52;;;;;;;4.18;2.03;;;5.90;99.90;;;;;;5060279;28;20112;-83
2023/04/04 08:59:19;;;;;;;5.82;1.70;;;6.00;99.90;;;;;;5070964;28;20040;-83
2023/04/04 09:01:47;;;;;;;4.22;1.90;;;6.10;99.90;;;;;;5097081;28;20812;-83
2023/04/04 09:04:14;;;;;;;8.48;1.90;;;6.20;99.90;;;;;;5070157;28;20536;-84
2023/04/04 09:06:41;;;;;;;6.75;1.70;;;6.30;99.90;;;;;;5094778;28;20039;-84
2023/04/04 09:09:08;;;;;;;5.22;1.70;;;6.40;99.90;;;;;;5060430;28;20476;-84
2023/04/04 09:11:37;;;;;;;6.88;1.80;;;6.40;99.90;;;;;;5076285;28;20500;-83
2023/04/04 09:14:03;;;;;;;6.28;1.90;;;6.50;99.90;;;;;;5092890;28;20036;-84
2023/04/04 09:16:30;;;;;;;9.23;2.25;;;6.60;99.90;;;;;;5076813;28;20096;-84
2023/04/04 09:18:57;;;;;;;8.02;1.85;;;6.60;99.90;;;;;;5075970;28;20500;-84
2023/04/04 09:21:25;;;;;;;6.78;1.70;;;6.80;99.90;;;;;;5075966;28;20063;-85
2023/04/04 09:23:59;;;;;;;4.68;1.75;;;6.80;99.90;;;;;;5076449;28;20407;-84
2023/04/04 09:26:26;;;;;;;5.40;1.75;;;6.90;99.90;;;;;;5092919;28;20504;-84
2023/04/04 09:28:53;;;;;;;4.80;1.52;;;7.00;99.90;;;;;;5075822;28;20036;-84
2023/04/04 09:31:20;;;;;;;6.28;2.33;;;7.10;99.90;;;;;;5076641;28;20801;-85
2023/04/04 09:33:49;;;;;;;5.72;1.80;;;7.10;99.90;;;;;;5075939;28;20036;-84
2023/04/04 09:36:16;;;;;;;4.93;1.58;;;7.10;97.50;;;;;;5086665;28;20487;-84
2023/04/04 09:38:44;;;;;;;7.82;1.60;;;7.20;99.90;;;;;;5078796;28;20445;-84
2023/04/04 09:41:14;;;;;;;5.57;1.65;;;7.40;99.90;;;;;;5078320;28;20039;-85
2023/04/04 09:43:44;;;;;;;8.80;1.80;;;7.50;99.90;;;;;;5081373;28;20040;-83
2023/04/04 09:46:11;;;;;;;7.05;1.75;;;7.50;99.90;;;;;;5075561;28;20089;-84
2023/04/04 09:48:37;;;;;;;4.68;1.80;;;7.50;99.80;;;;;;5059158;28;20036;-84
2023/04/04 09:51:11;;;;;;;5.57;1.77;;;7.60;99.90;;;;;;5092698;28;20039;-84
2023/04/04 09:53:40;;;;;;;6.25;1.50;;;7.80;99.90;;;;;;5099876;28;20531;-84
2023/04/04 09:56:08;;;;;;;5.05;1.58;;;7.90;99.90;;;;;;5128787;28;20551;-84
2023/04/04 09:58:35;;;;;;;5.45;1.70;;;8.00;99.90;;;;;;5099181;28;20492;-84
2023/04/04 10:01:07;;;;;;;5.53;1.75;;;8.00;99.90;;;;;;5082840;28;20033;-84
2023/04/04 10:03:36;;;;;;;4.63;1.60;;;8.10;99.90;;;;;;5112882;28;20036;-84
2023/04/04 10:06:05;;;;;;;5.53;1.75;;;8.10;99.80;;;;;;5076528;28;20035;-84
2023/04/04 10:08:32;;;;;;;5.72;1.58;;;8.10;99.90;;;;;;5095333;28;20039;-84
2023/04/04 10:11:01;;;;;;;4.90;2.00;;;8.20;99.90;;;;;;5101064;28;20085;-84
2023/04/04 10:13:32;;;;;;;6.15;2.00;;;8.20;99.90;;;;;;5092099;28;20039;-84
2023/04/04 10:16:00;;;;;;;6.38;2.53;;;8.30;99.30;;;;;;5092054;28;20078;-84
2023/04/04 10:18:29;;;;;;;5.78;1.98;;;8.30;99.70;;;;;;5092487;28;20494;-84
2023/04/04 10:21:02;;;;;;;6.13;1.77;;;8.40;99.70;;;;;;5091788;28;20079;-84
2023/04/04 10:23:30;;;;;;;7.00;1.95;;;8.40;98.90;;;;;;5109779;28;20055;-84
2023/04/04 10:25:58;;;;;;;4.55;1.83;;;8.40;97.30;;;;;;5108768;28;20044;-84
2023/04/04 10:28:26;;;;;;;3.88;1.85;;;8.40;97.90;;;;;;5092274;28;20044;-85
2023/04/04 10:31:22;;;;;;;7.18;2.42;;;8.40;98.60;;;;;;5092183;28;20036;-85
2023/04/04 10:34:06;;;;;;;4.60;1.75;;;8.50;97.20;;;;;;5075702;28;20089;-84
2023/04/04 10:36:53;;;;;;;4.40;1.80;;;8.50;96.50;;;;;;5092816;28;20043;-84
2023/04/04 10:39:26;;;;;;;4.78;1.70;;;8.50;97.80;;;;;;5092197;28;20614;-84
2023/04/04 10:41:55;;;;;;;5.10;1.75;;;8.60;96.80;;;;;;5075792;28;20032;-84
2023/04/04 10:44:32;;;;;;;6.95;1.70;;;8.80;97.20;;;;;;5075873;28;20124;-84
2023/04/04 10:47:20;;;;;;;5.03;2.25;;;8.80;95.40;;;;;;5092095;28;20043;-84
2023/04/04 10:49:48;;;;;;;7.43;1.77;;;8.80;96.50;;;;;;5109235;28;20127;-84
2023/04/04 10:52:17;;;;;;;4.20;1.73;;;8.80;97.10;;;;;;5092206;28;20056;-84
2023/04/04 10:54:47;;;;;;;4.15;1.73;;;8.80;97.00;;;;;;5083853;28;20042;-84
2023/04/04 10:57:15;;;;;;;4.88;1.92;;;9.00;97.10;;;;;;5099815;28;20044;-84
2023/04/04 11:00:09;;;;;;;4.47;2.03;;;9.00;96.40;;;;;;5108940;28;20040;-85
2023/04/04 11:02:56;;;;;;;4.63;1.73;;;9.10;95.60;;;;;;5121288;28;20051;-85
2023/04/04 11:05:46;;;;;;;7.55;2.60;;;9.20;96.10;;;;;;5095483;28;20065;-84
2023/04/04 11:08:23;;;;;;;4.13;2.13;;;9.20;96.70;;;;;;5100036;28;20492;-84
2023/04/04 11:10:53;;;;;;;5.90;1.90;;;9.20;96.80;;;;;;5092929;28;20496;-84
2023/04/04 11:13:28;;;;;;;6.22;1.70;;;9.10;97.20;;;;;;5100752;28;20079;-85
2023/04/04 11:15:58;;;;;;;8.75;2.08;;;9.10;95.90;;;;;;5079499;28;20089;-84
2023/04/04 11:18:31;;;;;;;5.20;2.10;;;9.10;96.70;;;;;;5095825;28;20044;-84
2023/04/04 11:21:04;;;;;;;6.13;2.10;;;9.20;96.80;;;;;;5105275;28;20047;-84
2023/04/04 11:23:57;;;;;;;5.85;2.03;;;9.20;96.60;;;;;;5079777;28;20089;-85
2023/04/04 11:26:26;;;;;;;6.22;2.10;;;9.20;95.20;;;;;;5058442;28;20044;-84
2023/04/04 11:29:01;;;;;;;6.60;2.20;;;9.30;94.90;;;;;;5096052;28;20146;-84
2023/04/04 11:31:32;;;;;;;5.07;2.15;;;9.40;96.60;;;;;;5094340;28;20042;-81
2023/04/04 11:34:07;;;;;;;5.53;2.10;;;9.40;96.60;;;;;;5103569;28;20040;-84
2023/04/04 11:36:37;;;;;;;4.85;2.20;;;9.50;95.50;;;;;;5095150;28;20040;-84
2023/04/04 11:39:06;;;;;;;4.57;2.13;;;9.50;96.10;;;;;;5094902;28;20044;-83
2023/04/04 11:42:02;;;;;;;4.88;1.90;;;9.40;96.00;;;;;;5110062;28;20419;-83
2023/04/04 11:44:31;;;;;;;6.93;1.90;;;9.40;94.10;;;;;;5129125;28;20036;-84
2023/04/04 11:47:04;;;;;;;6.80;1.92;;;9.60;95.00;;;;;;5111407;28;20281;-85
2023/04/04 11:49:42;;;;;;;4.70;2.00;;;9.50;93.50;;;;;;5078677;28;20134;-84
2023/04/04 11:52:18;;;;;;;6.95;2.22;;;9.50;94.20;;;;;;5114510;28;20154;-84
2023/04/04 11:54:46;;;;;;;3.70;2.00;;;9.30;93.80;;;;;;5094517;28;20052;-84
2023/04/04 11:57:15;;;;;;;5.63;2.25;;;9.20;95.00;;;;;;5104037;28;20078;-84
2023/04/04 11:59:47;;;;;;;8.95;2.10;;;9.00;94.60;;;;;;5086423;28;20043;-84
2023/04/04 12:02:30;;;;;;;4.15;1.95;;;9.00;95.30;;;;;;5077881;28;20032;-85
2023/04/04 12:04:58;;;;;;;7.75;2.30;;;9.10;95.10;;;;;;5094394;28;20511;-84
2023/04/04 12:07:25;;;;;;;5.15;2.13;;;9.20;95.70;;;;;;5061412;28;20480;-84
2023/04/04 12:09:52;;;;;;;7.60;2.20;;;9.40;95.30;;;;;;5077903;28;20043;-85
2023/04/04 12:12:20;;;;;;;5.60;2.55;;;9.40;95.10;;;;;;5077473;28;20476;-84
2023/04/04 12:14:48;;;;;;;5.20;2.30;;;9.40;94.70;;;;;;5096158;28;20115;-85
2023/04/04 12:17:15;;;;;;;5.05;2.20;;;9.40;94.80;;;;;;5094403;28;20043;-85
2023/04/04 12:19:43;;;;;;;5.88;2.35;;;9.40;94.80;;;;;;5077749;28;20040;-84
2023/04/04 12:22:10;;;;;;;6.32;2.25;;;9.40;94.60;;;;;;5094087;28;20095;-84
2023/04/04 12:24:37;;;;;;;6.82;2.40;;;9.30;93.80;;;;;;5077545;28;20047;-85
2023/04/04 12:27:05;;;;;;;4.88;2.20;;;9.30;94.70;;;;;;5060783;28;20036;-84
2023/04/04 12:29:36;;;;;;;4.97;2.10;;;9.30;94.20;;;;;;5094385;28;20381;-84
2023/04/04 12:32:04;;;;;;;4.80;2.33;;;9.30;94.40;;;;;;5094078;28;20127;-84
2023/04/04 12:34:33;;;;;;;5.18;2.35;;;9.40;94.00;;;;;;5093847;28;20454;-84
2023/04/04 12:37:01;;;;;;;7.45;2.63;;;9.30;94.40;;;;;;5077955;28;20434;-84
2023/04/04 12:39:28;;;;;;;9.52;2.42;;;9.30;94.30;;;;;;5110498;28;20123;-84
2023/04/04 12:42:03;;;;;;;6.45;2.30;;;9.30;94.50;;;;;;5110163;28;20036;-84
2023/04/04 12:44:33;;;;;;;5.50;2.20;;;9.30;94.60;;;;;;5098605;28;20118;-83
2023/04/04 12:47:03;;;;;;;5.43;2.35;;;9.30;93.90;;;;;;5113408;28;20474;-82
2023/04/04 12:49:38;;;;;;;5.75;2.35;;;9.20;94.10;;;;;;5093658;28;20040;-83
2023/04/04 12:52:15;;;;;;;6.32;2.70;;;9.30;94.30;;;;;;5093207;28;20089;-83
2023/04/04 12:54:42;;;;;;;7.70;2.47;;;9.40;94.30;;;;;;5093798;28;20101;-83
2023/04/04 12:57:11;;;;;;;4.45;2.05;;;9.30;94.40;;;;;;5076560;28;20470;-83
2023/04/04 12:59:38;;;;;;;8.85;3.17;;;9.30;93.20;;;;;;5060924;28;20086;-83
2023/04/04 13:02:08;;;;;;;7.80;2.42;;;9.20;94.50;;;;;;5110013;28;20040;-83